createdAt,value
2022-11-10T06:01:08.749Z,0.70
2022-11-10T06:06:30.712Z,0.50
2022-11-10T06:11:52.770Z,0.70
2022-11-10T06:17:16.050Z,0.60
2022-11-10T06:22:37.772Z,0.60
2022-11-10T06:28:00.011Z,0.70
2022-11-10T06:33:23.453Z,1.00
2022-11-10T06:38:45.740Z,0.40
2022-11-10T06:44:07.714Z,0.80
2022-11-10T06:49:30.787Z,0.50
2022-11-10T06:54:52.529Z,0.68
2022-11-10T07:00:16.825Z,0.52
2022-11-10T07:05:40.339Z,0.93
2022-11-10T07:11:02.298Z,0.55
2022-11-10T07:16:24.781Z,0.70
2022-11-10T07:21:48.198Z,0.90
2022-11-10T07:27:10.246Z,0.80
2022-11-10T07:32:31.895Z,0.88
2022-11-10T07:37:55.218Z,1.00
2022-11-10T07:43:16.935Z,0.95
2022-11-10T07:48:38.762Z,0.90
2022-11-10T07:54:02.014Z,0.80
2022-11-10T07:59:23.913Z,1.35
2022-11-10T08:04:45.591Z,1.00
2022-11-10T08:10:09.686Z,1.30
2022-11-10T08:15:32.628Z,1.30
2022-11-10T08:20:54.262Z,1.08
2022-11-10T08:26:17.887Z,0.80
2022-11-10T08:31:39.794Z,1.10
2022-11-10T08:37:01.494Z,0.82
2022-11-10T08:42:24.688Z,1.05
2022-11-10T08:47:46.639Z,0.80
2022-11-10T08:53:10.701Z,1.20
2022-11-10T08:58:33.918Z,1.00
2022-11-10T09:03:55.850Z,1.12
2022-11-10T09:09:17.604Z,1.27
2022-11-10T09:14:41.106Z,0.70
2022-11-10T09:20:02.870Z,1.25
2022-11-10T09:25:25.134Z,1.58
2022-11-10T09:30:51.017Z,0.98
2022-11-10T09:36:12.636Z,1.00
2022-11-10T09:41:34.603Z,1.45
2022-11-10T09:47:02.295Z,1.77
2022-11-10T09:52:25.849Z,1.67
2022-11-10T09:57:49.224Z,1.07
2022-11-10T10:03:18.329Z,0.85
2022-11-10T10:08:50.598Z,1.37
2022-11-10T10:14:45.092Z,1.25
2022-11-10T10:20:18.735Z,1.27
2022-11-10T10:25:42.745Z,1.00
2022-11-10T10:31:18.229Z,1.17
2022-11-10T10:36:41.485Z,0.80
2022-11-10T10:42:03.438Z,1.02
2022-11-10T10:47:38.066Z,0.60
2022-11-10T10:53:15.565Z,0.60
2022-11-10T10:58:50.754Z,0.80
2022-11-10T11:09:50.471Z,0.80
2022-11-10T11:15:20.140Z,0.43
2022-11-10T11:20:49.690Z,0.20
2022-11-10T11:26:19.230Z,0.20
2022-11-10T11:31:51.073Z,0.47
2022-11-10T11:37:20.418Z,0.65
2022-11-10T11:42:57.598Z,0.35
2022-11-10T11:48:36.462Z,0.65
2022-11-10T11:54:20.522Z,0.10
2022-11-10T12:00:05.067Z,0.10
2022-11-10T12:05:44.621Z,0.10
2022-11-10T12:11:16.158Z,0.20
2022-11-10T12:16:44.532Z,0.52
2022-11-10T12:22:14.611Z,0.22
2022-11-10T12:27:40.114Z,0.52
2022-11-10T12:33:08.193Z,0.40
2022-11-10T12:38:43.734Z,0.10
2022-11-10T12:44:14.653Z,0.50
2022-11-10T12:49:40.381Z,0.32
2022-11-10T12:55:02.354Z,0.25
2022-11-10T13:00:28.774Z,0.15
2022-11-10T13:05:59.410Z,0.40
2022-11-10T13:11:28.108Z,0.95
2022-11-10T13:16:54.281Z,0.20
2022-11-10T13:22:37.059Z,0.47
2022-11-10T13:27:59.244Z,1.33
2022-11-10T13:33:34.373Z,0.50
2022-11-10T13:38:57.620Z,0.68
2022-11-10T13:44:25.752Z,0.25
2022-11-10T13:49:58.013Z,0.65
2022-11-10T13:55:32.752Z,0.45
2022-11-10T14:01:30.516Z,0.62
2022-11-10T14:06:55.371Z,0.47
2022-11-10T14:12:25.714Z,0.20
2022-11-10T14:17:51.510Z,0.25
2022-11-10T14:23:20.999Z,0.25
2022-11-10T14:28:44.159Z,0.20
2022-11-10T14:34:06.180Z,0.20
2022-11-10T14:39:32.860Z,0.62
2022-11-10T14:45:10.041Z,0.68
2022-11-10T14:50:33.888Z,0.70
2022-11-10T14:55:56.332Z,1.07
2022-11-10T15:01:27.519Z,0.47
2022-11-10T15:06:52.050Z,0.43
2022-11-10T15:12:27.157Z,0.60
2022-11-10T15:23:23.593Z,0.40
2022-11-10T15:28:47.521Z,0.30
2022-11-10T15:34:33.266Z,0.10
2022-11-10T15:40:16.316Z,0.68
2022-11-10T15:45:38.925Z,0.47
2022-11-10T15:51:02.316Z,0.10
2022-11-10T15:56:25.671Z,0.52
2022-11-10T16:01:47.746Z,0.15
2022-11-10T16:07:11.167Z,0.30
2022-11-10T16:12:33.513Z,0.40
2022-11-10T16:17:55.162Z,1.23
2022-11-10T16:23:18.845Z,0.70
2022-11-10T16:28:44.034Z,1.02
2022-11-10T16:34:06.039Z,0.62
2022-11-10T16:39:29.873Z,0.80
2022-11-10T16:44:52.420Z,1.17
2022-11-10T16:50:31.789Z,0.50
2022-11-10T16:55:55.055Z,0.80
2022-11-10T17:01:20.837Z,0.50
2022-11-10T17:06:43.424Z,0.65
2022-11-10T17:12:06.838Z,0.90
2022-11-10T17:17:28.882Z,0.32
2022-11-10T17:22:50.876Z,0.85
2022-11-10T17:28:16.327Z,0.68
2022-11-10T17:33:38.270Z,1.02
2022-11-10T17:38:59.951Z,0.68
2022-11-10T17:44:23.331Z,0.75
2022-11-10T17:49:45.001Z,1.10
2022-11-10T17:55:06.928Z,1.30
2022-11-10T18:00:30.392Z,1.10
2022-11-10T18:05:52.120Z,1.20
2022-11-10T18:11:16.772Z,1.48
2022-11-10T18:22:01.470Z,1.98
2022-11-10T18:27:23.123Z,2.70
2022-11-10T18:32:46.474Z,1.30
2022-11-10T18:38:09.998Z,1.75
2022-11-10T18:43:31.584Z,0.90
2022-11-10T18:48:54.675Z,1.37
2022-11-10T18:54:16.765Z,1.05
2022-11-10T18:59:38.362Z,1.70
2022-11-10T19:05:02.627Z,1.45
2022-11-10T19:10:24.507Z,1.90
2022-11-10T19:15:46.552Z,1.50
2022-11-10T19:21:10.970Z,2.47
2022-11-10T19:26:33.060Z,2.03
2022-11-10T19:31:55.128Z,1.92
2022-11-10T19:37:18.336Z,2.58
2022-11-10T19:42:40.223Z,2.05
2022-11-10T19:48:02.149Z,2.28
2022-11-10T19:53:25.733Z,2.30
2022-11-10T19:58:49.198Z,1.95
2022-11-10T20:04:12.484Z,1.25
2022-11-10T20:09:35.891Z,1.45
2022-11-10T20:14:57.832Z,0.85
2022-11-10T20:20:19.635Z,1.40
2022-11-10T20:25:43.194Z,1.25
2022-11-10T20:31:07.965Z,1.10
2022-11-10T20:36:32.290Z,0.98
2022-11-10T20:41:55.852Z,1.05
2022-11-10T20:47:17.458Z,1.30
2022-11-10T20:52:38.958Z,1.83
2022-11-10T20:58:02.403Z,1.77
2022-11-10T21:03:24.523Z,1.20
2022-11-10T21:08:46.671Z,1.25
2022-11-10T21:14:09.945Z,1.33
2022-11-10T21:19:34.483Z,1.48
2022-11-10T21:24:56.258Z,1.73
2022-11-10T21:30:23.908Z,2.25
2022-11-10T21:35:46.088Z,2.30
2022-11-10T21:41:07.780Z,1.50
2022-11-10T21:46:30.834Z,1.67
2022-11-10T21:51:54.005Z,1.65
2022-11-10T21:57:15.773Z,2.03
2022-11-10T22:02:38.914Z,2.10
2022-11-10T22:08:00.668Z,1.33
2022-11-10T22:13:40.127Z,1.42
2022-11-10T22:19:04.421Z,1.08
2022-11-10T22:24:27.683Z,1.27
2022-11-10T22:29:49.374Z,1.60
2022-11-10T22:35:34.103Z,1.75
2022-11-10T22:41:16.587Z,2.30
2022-11-10T22:46:39.836Z,2.12
2022-11-10T22:52:03.223Z,2.45
2022-11-10T22:57:26.136Z,1.35
2022-11-10T23:02:47.934Z,2.00
2022-11-10T23:08:10.924Z,1.33
2022-11-10T23:13:34.735Z,2.00
2022-11-10T23:18:58.133Z,1.75
2022-11-10T23:24:24.547Z,2.00
2022-11-10T23:29:46.410Z,1.70
